Latest Weather Observations for Sydney Airport

IDN60901

Issued at 1:31 pm EST Tuesday 22 August 2017 (issued every 10 minutes, with the page automatically refreshed every 10 minutes)

About weather observations | Map of Sydney area stations | Latest observations for Sydney area | Other Formats
Station Details ID: 066037 Name: SYDNEY AIRPORT AMO Lat: -33.95 Lon: 151.17 Height: 6.0 m
Data from the previous 72 hours. | See also: Recent months at Sydney Airport
Date/Time
EST
Temp
°C
App
Temp
°C
Dew
Point
°C
Rel
Hum
%
Delta-T
°C
Wind Press
QNH
hPa
Press
MSL
hPa
Rain since
9am
mm
Dir  Spd
km/h
Gust
km/h
Spd
kts
Gust
kts
22/01:00pm 17.8 13.6 5.7 45 5.9 SSE 17 24 9 13 1018.4 1018.4 0.0
22/12:30pm 18.2 14.7 5.4 43 6.2 SSE 13 19 7 10 1018.7 1018.7 0.0
22/12:00pm 17.1 14.1 7.7 54 4.7 SSE 13 15 7 8 1019.1 1019.1 0.0
22/11:30am 17.4 14.5 6.6 49 5.3 SSE 11 15 6 8 1019.5 1019.5 0.0
22/11:00am 16.2 13.2 3.9 44 5.7 WSW 9 11 5 6 1019.6 1019.6 0.0
22/10:30am 16.8 13.9 4.5 44 5.8 NW 9 19 5 10 1019.8 1019.8 0.0
22/10:00am 16.9 14.2 5.5 47 5.5 NW 9 13 5 7 1019.9 1019.9 0.0
22/09:30am 15.9 12.8 5.5 50 5.0 NW 11 15 6 8 1019.8 1019.8 0.0
22/09:00am 15.1 12.0 5.6 53 4.5 NW 11 13 6 7 1019.8 1019.8 0.0
22/08:30am 14.0 11.0 6.1 59 3.8 NW 11 15 6 8 1019.9 1019.9 0.0
22/08:00am 12.5 9.4 5.4 62 3.3 N 11 13 6 7 1019.6 1019.6 0.0
22/07:30am 11.1 8.0 5.6 69 2.5 NNW 11 15 6 8 1019.2 1019.2 0.0
22/07:00am 10.4 7.0 5.8 73 2.1 NW 13 17 7 9 1018.9 1018.9 0.0
22/06:30am 9.5 6.5 5.9 78 1.6 WNW 11 13 6 7 1018.5 1018.5 0.0
22/06:00am 8.7 5.9 5.1 78 1.6 NNW 9 11 5 6 1018.1 1018.1 0.0
22/05:30am 9.1 6.1 5.8 80 1.5 NW 11 13 6 7 1018.1 1018.1 0.0
22/05:00am 9.7 7.1 5.9 77 1.7 NNW 9 11 5 6 1017.9 1017.9 0.0
22/04:30am 9.8 6.9 6.3 79 1.6 WSW 11 13 6 7 1017.7 1017.7 0.0
22/04:00am 10.0 7.8 6.2 77 1.8 NNW 7 9 4 5 1017.2 1017.2 0.0
22/03:30am 10.5 7.6 6.6 77 1.8 NNW 11 13 6 7 1016.9 1016.9 0.0
22/03:00am 11.0 8.2 6.9 76 1.9 NNW 11 11 6 6 1016.9 1016.9 0.0
22/02:30am 10.8 8.8 7.3 79 1.7 NW 7 9 4 5 1017.1 1017.1 0.0
22/02:00am 11.1 8.5 7.6 79 1.7 W 11 11 6 6 1017.3 1017.3 0.0
22/01:30am 11.3 9.4 7.6 78 1.8 WSW 7 9 4 5 1017.4 1017.4 0.0
22/01:00am 11.4 9.0 7.1 75 2.1 W 9 11 5 6 1017.7 1017.7 0.0
22/12:30am 11.7 9.4 7.4 75 2.1 W 9 9 5 5 1017.8 1017.8 0.0
22/12:00am 11.9 9.9 7.2 73 2.3 W 7 9 4 5 1017.8 1017.8 0.0
 
Date/Time
EST
Temp
°C
App
Temp
°C
Dew
Point
°C
Rel
Hum
%
Delta-T
°C
Wind Press
QNH
hPa
Press
MSL
hPa
Rain since
9am
mm
Dir  Spd
km/h
Gust
km/h
Spd
kts
Gust
kts
21/11:30pm 12.8 10.5 7.5 70 2.6 NW 9 11 5 6 1017.9 1017.9 0.0
21/11:00pm 12.7 10.2 6.5 66 2.9 WSW 9 13 5 7 1018.4 1018.4 0.0
21/10:30pm 12.9 9.8 7.4 69 2.7 SW 13 22 7 12 1018.2 1018.2 0.0
21/10:00pm 13.3 8.6 7.7 69 2.7 S 22 30 12 16 1018.1 1018.1 0.0
21/09:30pm 13.3 8.3 8.0 70 2.6 SSW 24 32 13 17 1017.9 1017.9 0.0
21/09:00pm 13.7 10.5 6.8 63 3.3 SW 13 17 7 9 1017.9 1017.9 0.0
21/08:30pm 14.1 11.9 6.2 59 3.8 WSW 7 13 4 7 1017.6 1017.6 0.0
21/08:00pm 14.4 11.8 6.3 58 3.9 W 9 13 5 7 1017.3 1017.3 0.0
21/07:30pm 14.3 11.7 6.2 58 3.9 W 9 11 5 6 1017.0 1017.0 0.0
21/07:00pm 14.3 12.1 6.4 59 3.8 WSW 7 9 4 5 1016.8 1016.8 0.0
21/06:30pm 14.4 12.7 7.5 63 3.4 WSW 6 9 3 5 1016.6 1016.6 0.0
21/06:00pm 15.8 13.3 4.8 48 5.2 NW 7 9 4 5 1016.5 1016.5 0.0
21/05:30pm 16.2 13.3 4.6 46 5.5 NW 9 13 5 7 1016.1 1016.1 0.0
21/05:00pm 16.7 13.4 4.4 44 5.8 NW 11 15 6 8 1015.7 1015.7 0.0
21/04:30pm 17.0 13.8 5.0 45 5.7 NW 11 15 6 8 1015.6 1015.6 0.0
21/04:00pm 17.2 13.7 5.5 46 5.6 NNW 13 24 7 13 1015.6 1015.6 0.0
21/03:30pm 17.6 14.6 5.9 46 5.7 NNE 11 17 6 9 1015.3 1015.3 0.0
21/03:00pm 16.0 12.2 5.6 50 5.0 N 15 19 8 10 1015.3 1015.3 0.0
21/02:30pm 16.6 13.3 6.4 51 5.0 NNE 13 17 7 9 1015.6 1015.6 0.0
21/02:00pm 15.6 12.6 6.1 53 4.6 N 11 15 6 8 1016.0 1016.0 0.0
21/01:30pm 15.5 13.7 7.0 57 4.2 WSW 6 11 3 6 1016.6 1016.6 0.0
21/01:00pm 14.7 10.8 7.0 60 3.8 W 17 20 9 11 1017.4 1017.4 0.0
21/12:30pm 14.3 10.8 7.4 63 3.4 WNW 15 20 8 11 1017.7 1017.7 0.0
21/12:00pm 15.9 12.3 6.6 54 4.5 NW 15 19 8 10 1018.5 1018.5 0.0
21/11:30am 16.0 11.7 7.0 55 4.4 N 19 24 10 13 1018.5 1018.5 0.0
21/11:00am 15.0 10.9 6.3 56 4.2 NNW 17 26 9 14 1018.8 1018.8 0.0
21/10:30am 14.9 10.3 6.7 58 4.0 NW 20 26 11 14 1019.4 1019.4 0.0
21/10:00am 13.7 10.7 6.1 60 3.6 NW 11 15 6 8 1019.4 1019.4 0.0
21/09:30am 13.8 10.5 6.2 60 3.6 NW 13 15 7 8 1019.7 1019.7 0.0
21/09:00am 13.2 10.6 5.9 61 3.4 NW 9 13 5 7 1019.8 1019.8 0.2
21/08:30am 12.9 9.9 5.8 62 3.3 NW 11 17 6 9 1020.2 1020.2 0.2
21/08:00am 11.4 7.4 5.1 65 2.9 NW 15 20 8 11 1020.1 1020.1 0.2
21/07:30am 10.6 7.0 5.2 69 2.5 NW 13 17 7 9 1020.3 1020.3 0.2
21/07:00am 9.7 5.3 4.9 72 2.1 NW 17 24 9 13 1020.1 1020.1 0.2
21/06:30am 9.3 5.3 4.9 74 2.0 NW 15 20 8 11 1019.6 1019.6 0.2
21/06:00am 9.3 6.4 4.9 74 2.0 N 9 13 5 7 1019.2 1019.2 0.2
21/05:30am 9.7 6.5 5.3 74 2.0 NNW 11 15 6 8 1019.7 1019.7 0.2
21/05:00am 9.0 6.2 5.0 76 1.8 NW 9 11 5 6 1019.6 1019.6 0.2
21/04:30am 8.2 4.9 4.6 78 1.6 WNW 11 13 6 7 1019.8 1019.8 0.2
21/04:00am 8.9 5.7 5.1 77 1.7 NW 11 13 6 7 1019.8 1019.8 0.2
21/03:30am 8.8 5.6 5.2 78 1.6 WNW 11 13 6 7 1020.0 1020.0 0.2
21/03:00am 8.9 5.4 5.3 78 1.6 NW 13 15 7 8 1020.2 1020.2 0.2
21/02:30am 8.7 5.1 4.9 77 1.7 NNW 13 17 7 9 1020.0 1020.0 0.2
21/02:00am 8.4 5.5 4.6 77 1.7 NNW 9 11 5 6 1020.0 1020.0 0.2
21/01:30am 8.7 5.0 4.7 76 1.8 NW 13 15 7 8 1020.9 1020.9 0.2
21/01:00am 9.3 5.7 5.1 75 1.9 NW 13 15 7 8 1021.0 1021.0 0.2
21/12:30am 9.4 5.1 5.2 75 1.9 WNW 17 20 9 11 1021.3 1021.3 0.2
21/12:00am 9.6 5.7 5.2 74 2.0 NW 15 19 8 10 1021.2 1021.2 0.2
 
Date/Time
EST
Temp
°C
App
Temp
°C
Dew
Point
°C
Rel
Hum
%
Delta-T
°C
Wind Press
QNH
hPa
Press
MSL
hPa
Rain since
9am
mm
Dir  Spd
km/h
Gust
km/h
Spd
kts
Gust
kts
20/11:30pm 10.2 6.7 5.6 73 2.1 NNW 13 15 7 8 1021.1 1021.1 0.2
20/11:00pm 10.7 8.0 5.7 71 2.3 NNW 9 9 5 5 1021.2 1021.2 0.2
20/10:30pm 11.0 8.0 6.0 71 2.3 NW 11 11 6 6 1021.4 1021.4 0.2
20/10:00pm 11.1 7.8 6.3 72 2.2 WNW 13 17 7 9 1022.1 1022.1 0.2
20/09:30pm 12.1 9.7 6.8 70 2.5 W 9 20 5 11 1021.9 1021.9 0.2
20/09:00pm 12.0 9.5 6.7 70 2.5 WNW 9 13 5 7 1022.0 1022.0 0.2
20/08:30pm 11.8 9.0 6.9 72 2.3 W 11 13 6 7 1021.7 1021.7 0.2
20/08:00pm 11.9 8.8 7.4 74 2.2 SW 13 17 7 9 1021.8 1021.8 0.2
20/07:30pm 12.7 9.8 8.0 73 2.3 SW 13 15 7 8 1021.6 1021.6 0.2
20/07:00pm 13.1 9.7 7.8 70 2.6 SSW 15 26 8 14 1021.4 1021.4 0.2
20/06:30pm 13.4 9.8 8.5 72 2.4 SSW 17 22 9 12 1021.5 1021.5 0.2
20/06:00pm 13.4 9.4 8.3 71 2.5 SSW 19 24 10 13 1021.4 1021.4 0.2
20/05:30pm 13.4 8.8 8.3 71 2.5 S 22 30 12 16 1021.3 1021.3 0.2
20/05:00pm 13.7 9.4 7.9 68 2.9 SSW 20 28 11 15 1021.4 1021.4 0.2
20/04:30pm 13.9 8.7 7.4 65 3.2 S 24 30 13 16 1021.4 1021.4 0.2
20/04:00pm 14.0 8.2 8.0 67 3.0 SSW 28 33 15 18 1021.4 1021.4 0.2
20/03:30pm 14.1 7.9 7.9 66 3.1 SSW 30 37 16 20 1021.3 1021.3 0.2
20/03:00pm 14.3 8.4 7.6 64 3.3 SSW 28 35 15 19 1021.6 1021.6 0.2
20/02:30pm 14.7 8.1 7.7 63 3.5 SSW 32 39 17 21 1021.8 1021.8 0.2
20/02:00pm 13.9 7.2 7.2 64 3.3 SSW 32 41 17 22 1021.8 1021.8 0.2
20/01:30pm 13.7 7.1 7.7 67 3.0 SSW 32 39 17 21 1022.2 1022.2 0.2
20/01:00pm 13.8 7.2 7.6 66 3.0 SSW 32 39 17 21 1022.2 1022.2 0.2
20/12:30pm 13.9 7.2 7.2 64 3.3 SSW 32 41 17 22 1022.5 1022.5 0.2
20/12:00pm 13.9 7.4 6.5 61 3.5 S 30 41 16 22 1022.6 1022.6 0.2
20/11:30am 13.6 7.1 6.5 62 3.4 S 30 41 16 22 1023.1 1023.1 0.2
20/11:00am 13.6 6.6 6.0 60 3.6 SSW 32 43 17 23 1023.7 1023.7 0.2
20/10:30am 13.3 6.2 6.2 62 3.4 SSW 33 48 18 26 1024.2 1024.2 0.2
20/10:00am 12.6 5.3 4.6 58 3.6 SSW 32 37 17 20 1024.4 1024.4 0.0
20/09:30am 12.8 6.0 5.0 59 3.6 SSW 30 37 16 20 1024.3 1024.3 0.0
20/09:24am 12.4 5.8 4.4 58 3.6 SSW 28 37 15 20 1024.2 1024.2 0.0
20/09:00am 10.7 5.9 0.2 48 4.2 W 15 19 8 10 1024.5 1024.5 0.4
20/08:30am 10.2 4.9 -0.3 48 4.2 WNW 17 19 9 10 1024.4 1024.4 0.4
20/08:00am 8.1 2.7 -1.1 52 3.5 WNW 17 22 9 12 1024.2 1024.2 0.4
20/07:30am 7.3 1.9 -1.6 53 3.3 WNW 17 22 9 12 1023.8 1023.8 0.4
20/07:00am 6.5 0.7 -1.6 56 3.0 WNW 19 26 10 14 1023.7 1023.7 0.4
20/06:30am 5.9 -0.2 -2.0 57 2.9 WNW 20 26 11 14 1023.3 1023.3 0.4
20/06:00am 6.3 0.5 -1.6 57 2.9 WNW 19 24 10 13 1023.1 1023.1 0.4
20/05:30am 6.2 -0.2 -1.7 57 2.9 W 22 28 12 15 1022.9 1022.9 0.4
20/05:00am 6.5 0.1 -1.6 56 3.0 W 22 28 12 15 1022.6 1022.6 0.4
20/04:30am 7.1 0.3 -1.6 54 3.3 W 24 32 13 17 1022.3 1022.3 0.4
20/04:00am 7.1 -0.5 -2.1 52 3.4 W 28 33 15 18 1022.0 1022.0 0.4
20/03:30am 7.0 -0.2 -2.2 52 3.4 W 26 32 14 17 1022.1 1022.1 0.4
20/03:00am 7.1 0.3 -1.6 54 3.2 W 24 30 13 16 1022.0 1022.0 0.4
20/02:30am 7.5 0.0 -1.7 52 3.4 W 28 32 15 17 1022.0 1022.0 0.4
20/02:00am 7.9 0.4 -1.1 53 3.4 W 28 32 15 17 1022.1 1022.1 0.4
20/01:30am 8.4 1.8 -0.6 53 3.5 W 24 30 13 16 1022.2 1022.2 0.4
20/01:00am 9.3 3.0 -0.8 49 3.9 WSW 22 30 12 16 1022.1 1022.1 0.4
20/12:30am 9.8 1.6 -0.7 48 4.1 SW 32 39 17 21 1022.0 1022.0 0.4
20/12:00am 10.4 3.2 0.7 51 4.0 WSW 28 35 15 19 1021.7 1021.7 0.4
 
Date/Time
EST
Temp
°C
App
Temp
°C
Dew
Point
°C
Rel
Hum
%
Delta-T
°C
Wind Press
QNH
hPa
Press
MSL
hPa
Rain since
9am
mm
Dir  Spd
km/h
Gust
km/h
Spd
kts
Gust
kts
19/11:30pm 10.8 3.9 0.0 47 4.4 SW 26 33 14 18 1021.9 1021.9 0.4
19/11:00pm 11.1 3.0 0.8 49 4.2 SW 33 41 18 22 1021.9 1021.9 0.4
19/10:30pm 11.6 3.6 3.9 59 3.4 SW 35 43 19 23 1021.9 1021.9 0.4
19/10:00pm 12.0 3.4 4.5 60 3.4 SW 39 52 21 28 1021.7 1021.7 0.4
19/09:33pm 12.4 3.5 4.9 60 3.4 SSW 41 61 22 33 1021.7 1021.7 0.4
19/09:30pm 12.3 3.7 4.5 59 3.5 SSW 39 50 21 27 1021.7 1021.7 0.4
19/09:00pm 12.0 4.8 5.2 63 3.1 SW 32 41 17 22 1021.5 1021.5 0.4
19/08:30pm 12.5 5.3 5.9 64 3.1 SSW 33 48 18 26 1021.3 1021.3 0.4
19/08:00pm 12.8 5.1 7.0 68 2.8 SSW 37 50 20 27 1020.9 1020.9 0.4
19/07:30pm 12.5 3.6 7.0 69 2.6 SSW 43 57 23 31 1020.7 1020.7 0.4
19/07:00pm 12.0 3.5 6.9 71 2.4 SSW 41 57 22 31 1020.4 1020.4 0.0
19/06:30pm 12.8 3.8 6.6 66 3.0 SSW 43 56 23 30 1020.1 1020.1 0.0
19/06:00pm 13.2 4.1 6.8 65 3.1 SSW 44 56 24 30 1019.8 1019.8 0.0
19/05:30pm 13.3 4.3 6.2 62 3.4 SSW 43 54 23 29 1019.3 1019.3 0.0
19/05:00pm 13.5 3.8 5.7 59 3.7 SSW 46 56 25 30 1018.8 1018.8 0.0
19/04:30pm 13.8 4.0 5.4 57 3.9 SSW 46 59 25 32 1018.4 1018.4 0.0
19/04:00pm 14.1 4.8 4.9 54 4.3 SSW 43 59 23 32 1018.2 1018.2 0.0
19/03:30pm 14.1 3.2 3.6 49 4.8 SSW 50 61 27 33 1018.1 1018.1 0.0
19/03:00pm 14.6 5.0 4.3 50 4.7 SSW 44 54 24 29 1017.7 1017.7 0.0
19/02:30pm 14.1 4.5 3.3 48 4.9 SSW 43 57 23 31 1017.5 1017.5 0.0
19/02:00pm 14.1 4.1 4.1 51 4.6 SSW 46 57 25 31 1017.4 1017.4 0.0

Latest Capital City Observations: Canberra | Sydney | Melbourne | Brisbane | Adelaide | Perth | Hobart | Darwin

Other Formats:

Comma delimited format used in spreadsheet applications
http://www.bom.gov.au/fwo/IDN60901/IDN60901.94767.axf

JavaScript Object Notation format (JSON) in row-major order
http://www.bom.gov.au/fwo/IDN60901/IDN60901.94767.json